sensor_id;sensor_type;location;lat;lon;timestamp;pressure;altitude;pressure_sealevel;temperature;humidity
10712;BME280;5407;51.234;6.804;2024-03-06T00:00:59;101210.03;;;9.79;92.37
10712;BME280;5407;51.234;6.804;2024-03-06T00:03:27;101215.88;;;9.81;92.70
10712;BME280;5407;51.234;6.804;2024-03-06T00:05:54;101208.53;;;9.90;92.33
10712;BME280;5407;51.234;6.804;2024-03-06T00:08:21;101217.56;;;9.94;92.33
10712;BME280;5407;51.234;6.804;2024-03-06T00:10:48;101218.19;;;9.91;92.45
10712;BME280;5407;51.234;6.804;2024-03-06T00:13:15;101222.16;;;9.94;91.89
10712;BME280;5407;51.234;6.804;2024-03-06T00:15:42;101218.72;;;9.85;91.93
10712;BME280;5407;51.234;6.804;2024-03-06T00:18:09;101226.84;;;9.76;91.87
10712;BME280;5407;51.234;6.804;2024-03-06T00:20:37;101227.47;;;9.73;92.50
10712;BME280;5407;51.234;6.804;2024-03-06T00:23:06;101228.22;;;9.82;91.92
10712;BME280;5407;51.234;6.804;2024-03-06T00:25:33;101224.72;;;9.90;92.23
10712;BME280;5407;51.234;6.804;2024-03-06T00:28:00;101232.97;;;9.85;92.06
10712;BME280;5407;51.234;6.804;2024-03-06T00:30:27;101228.53;;;9.89;91.84
10712;BME280;5407;51.234;6.804;2024-03-06T00:32:52;101243.44;;;9.87;91.86
10712;BME280;5407;51.234;6.804;2024-03-06T00:35:19;101240.28;;;9.85;91.90
10712;BME280;5407;51.234;6.804;2024-03-06T00:37:48;101237.06;;;9.91;92.15
10712;BME280;5407;51.234;6.804;2024-03-06T00:40:15;101240.28;;;9.85;91.80
10712;BME280;5407;51.234;6.804;2024-03-06T00:42:42;101238.38;;;9.85;91.43
10712;BME280;5407;51.234;6.804;2024-03-06T00:45:10;101240.94;;;9.73;91.77
10712;BME280;5407;51.234;6.804;2024-03-06T00:47:37;101251.53;;;9.78;91.48
10712;BME280;5407;51.234;6.804;2024-03-06T00:50:04;101250.31;;;9.59;92.23
10712;BME280;5407;51.234;6.804;2024-03-06T00:52:33;101251.78;;;9.56;92.60
10712;BME280;5407;51.234;6.804;2024-03-06T00:55:01;101247.63;;;9.59;92.01
10712;BME280;5407;51.234;6.804;2024-03-06T00:57:28;101255.28;;;9.40;91.30
10712;BME280;5407;51.234;6.804;2024-03-06T00:59:55;101269.06;;;9.21;91.64
10712;BME280;5407;51.234;6.804;2024-03-06T01:02:22;101275.09;;;9.18;93.02
10712;BME280;5407;51.234;6.804;2024-03-06T01:04:48;101273.50;;;9.17;92.89
10712;BME280;5407;51.234;6.804;2024-03-06T01:07:15;101270.31;;;9.32;92.28
10712;BME280;5407;51.234;6.804;2024-03-06T01:09:42;101283.00;;;9.40;91.88
10712;BME280;5407;51.234;6.804;2024-03-06T01:12:10;101281.09;;;9.32;91.88
10712;BME280;5407;51.234;6.804;2024-03-06T01:14:37;101278.72;;;9.39;91.61
10712;BME280;5407;51.234;6.804;2024-03-06T01:17:04;101283.50;;;9.34;91.86
10712;BME280;5407;51.234;6.804;2024-03-06T01:19:31;101285.22;;;9.38;91.84
10712;BME280;5407;51.234;6.804;2024-03-06T01:21:58;101290.91;;;9.45;91.69
10712;BME280;5407;51.234;6.804;2024-03-06T01:24:25;101293.31;;;9.30;91.52
10712;BME280;5407;51.234;6.804;2024-03-06T01:26:52;101292.81;;;9.36;91.56
10712;BME280;5407;51.234;6.804;2024-03-06T01:29:20;101295.97;;;9.38;91.53
10712;BME280;5407;51.234;6.804;2024-03-06T01:31:47;101299.44;;;9.47;90.58
10712;BME280;5407;51.234;6.804;2024-03-06T01:34:14;101293.63;;;9.37;91.09
10712;BME280;5407;51.234;6.804;2024-03-06T01:36:41;101302.47;;;9.37;91.02
10712;BME280;5407;51.234;6.804;2024-03-06T01:39:08;101291.09;;;9.23;91.65
10712;BME280;5407;51.234;6.804;2024-03-06T01:41:35;101291.41;;;9.05;91.41
10712;BME280;5407;51.234;6.804;2024-03-06T01:44:02;101301.06;;;9.14;91.85
10712;BME280;5407;51.234;6.804;2024-03-06T01:46:31;101296.47;;;9.23;91.91
10712;BME280;5407;51.234;6.804;2024-03-06T01:48:58;101292.19;;;9.14;92.29
10712;BME280;5407;51.234;6.804;2024-03-06T01:51:25;101283.00;;;8.98;92.52
10712;BME280;5407;51.234;6.804;2024-03-06T01:53:53;101289.19;;;9.07;91.95
10712;BME280;5407;51.234;6.804;2024-03-06T01:56:20;101289.81;;;9.04;92.20
10712;BME280;5407;51.234;6.804;2024-03-06T01:58:50;101285.56;;;9.11;91.89
10712;BME280;5407;51.234;6.804;2024-03-06T02:01:17;101293.28;;;9.13;91.75
10712;BME280;5407;51.234;6.804;2024-03-06T02:03:46;101294.72;;;9.10;91.20
10712;BME280;5407;51.234;6.804;2024-03-06T02:06:14;101293.59;;;9.03;91.35
10712;BME280;5407;51.234;6.804;2024-03-06T02:08:45;101295.97;;;9.04;91.56
10712;BME280;5407;51.234;6.804;2024-03-06T02:11:11;101295.69;;;9.14;91.55
10712;BME280;5407;51.234;6.804;2024-03-06T02:13:39;101301.97;;;9.01;91.82
10712;BME280;5407;51.234;6.804;2024-03-06T02:16:07;101299.44;;;8.96;92.11
10712;BME280;5407;51.234;6.804;2024-03-06T02:18:34;101300.75;;;9.07;91.10
10712;BME280;5407;51.234;6.804;2024-03-06T02:21:03;101302.97;;;9.05;91.03
10712;BME280;5407;51.234;6.804;2024-03-06T02:23:34;101304.69;;;9.10;91.50
10712;BME280;5407;51.234;6.804;2024-03-06T02:26:01;101301.06;;;9.14;90.51
10712;BME280;5407;51.234;6.804;2024-03-06T02:28:28;101311.16;;;9.00;90.63
10712;BME280;5407;51.234;6.804;2024-03-06T02:30:55;101316.41;;;8.97;91.88
10712;BME280;5407;51.234;6.804;2024-03-06T02:33:22;101308.00;;;8.98;92.02
10712;BME280;5407;51.234;6.804;2024-03-06T02:35:49;101308.19;;;9.19;91.53
10712;BME280;5407;51.234;6.804;2024-03-06T02:38:21;101305.19;;;9.20;90.70
10712;BME280;5407;51.234;6.804;2024-03-06T02:40:48;101310.41;;;9.25;90.84
10712;BME280;5407;51.234;6.804;2024-03-06T02:43:15;101307.69;;;9.17;91.03
10712;BME280;5407;51.234;6.804;2024-03-06T02:45:42;101299.78;;;9.20;91.13
10712;BME280;5407;51.234;6.804;2024-03-06T02:48:09;101300.28;;;9.22;91.69
10712;BME280;5407;51.234;6.804;2024-03-06T02:50:36;101300.09;;;9.27;90.35
10712;BME280;5407;51.234;6.804;2024-03-06T02:53:03;101307.69;;;9.17;90.71
10712;BME280;5407;51.234;6.804;2024-03-06T02:55:32;101300.75;;;9.24;91.15
10712;BME280;5407;51.234;6.804;2024-03-06T02:58:01;101308.66;;;9.21;91.36
10712;BME280;5407;51.234;6.804;2024-03-06T03:00:28;101300.56;;;9.21;90.58
10712;BME280;5407;51.234;6.804;2024-03-06T03:02:56;101308.19;;;9.19;91.09
10712;BME280;5407;51.234;6.804;2024-03-06T03:05:23;101310.25;;;9.13;90.56
10712;BME280;5407;51.234;6.804;2024-03-06T03:07:50;101318.75;;;8.98;91.03
10712;BME280;5407;51.234;6.804;2024-03-06T03:10:18;101315.44;;;9.01;91.72
10712;BME280;5407;51.234;6.804;2024-03-06T03:12:47;101314.50;;;8.89;92.38
10712;BME280;5407;51.234;6.804;2024-03-06T03:15:13;101308.94;;;8.85;92.64
10712;BME280;5407;51.234;6.804;2024-03-06T03:17:40;101309.56;;;8.82;92.29
10712;BME280;5407;51.234;6.804;2024-03-06T03:20:07;101312.28;;;8.91;92.52
10712;BME280;5407;51.234;6.804;2024-03-06T03:22:36;101317.19;;;8.97;92.87
10712;BME280;5407;51.234;6.804;2024-03-06T03:25:06;101312.75;;;8.93;92.63
10712;BME280;5407;51.234;6.804;2024-03-06T03:27:33;101318.44;;;8.91;92.84
10712;BME280;5407;51.234;6.804;2024-03-06T03:30:02;101318.44;;;8.91;92.76
10712;BME280;5407;51.234;6.804;2024-03-06T03:32:31;101316.25;;;9.02;92.83
10712;BME280;5407;51.234;6.804;2024-03-06T03:34:58;101326.53;;;9.17;92.37
10712;BME280;5407;51.234;6.804;2024-03-06T03:37:25;101322.44;;;9.19;91.95
10712;BME280;5407;51.234;6.804;2024-03-06T03:39:51;101325.47;;;9.35;90.96
10712;BME280;5407;51.234;6.804;2024-03-06T03:42:18;101330.84;;;9.26;90.80
10712;BME280;5407;51.234;6.804;2024-03-06T03:44:45;101324.31;;;9.19;91.80
10712;BME280;5407;51.234;6.804;2024-03-06T03:47:14;101326.69;;;9.03;92.78
10712;BME280;5407;51.234;6.804;2024-03-06T03:49:40;101326.06;;;9.06;92.76
10712;BME280;5407;51.234;6.804;2024-03-06T03:52:08;101328.25;;;9.04;93.37
10712;BME280;5407;51.234;6.804;2024-03-06T03:54:35;101333.00;;;8.90;93.65
10712;BME280;5407;51.234;6.804;2024-03-06T03:57:01;101343.75;;;8.90;94.36
10712;BME280;5407;51.234;6.804;2024-03-06T03:59:28;101340.16;;;8.95;94.76
10712;BME280;5407;51.234;6.804;2024-03-06T04:01:55;101347.88;;;8.96;94.59
10712;BME280;5407;51.234;6.804;2024-03-06T04:04:24;101345.97;;;8.88;94.59
10712;BME280;5407;51.234;6.804;2024-03-06T04:06:51;101351.47;;;8.75;94.50
10712;BME280;5407;51.234;6.804;2024-03-06T04:09:18;101353.50;;;8.61;94.64
10712;BME280;5407;51.234;6.804;2024-03-06T04:11:45;101358.28;;;8.72;95.35
10712;BME280;5407;51.234;6.804;2024-03-06T04:14:12;101352.25;;;8.59;95.17
10712;BME280;5407;51.234;6.804;2024-03-06T04:16:39;101362.09;;;8.71;96.12
10712;BME280;5407;51.234;6.804;2024-03-06T04:19:06;101354.31;;;8.70;95.27
10712;BME280;5407;51.234;6.804;2024-03-06T04:21:34;101362.72;;;8.68;95.26
10712;BME280;5407;51.234;6.804;2024-03-06T04:24:01;101368.97;;;8.56;95.75
10712;BME280;5407;51.234;6.804;2024-03-06T04:26:28;101367.88;;;8.57;95.46
10712;BME280;5407;51.234;6.804;2024-03-06T04:28:55;101370.56;;;8.57;95.83
10712;BME280;5407;51.234;6.804;2024-03-06T04:31:21;101369.59;;;8.53;95.11
10712;BME280;5407;51.234;6.804;2024-03-06T04:33:48;101376.41;;;8.50;95.23
10712;BME280;5407;51.234;6.804;2024-03-06T04:36:15;101380.97;;;8.50;96.16
10712;BME280;5407;51.234;6.804;2024-03-06T04:38:43;101377.38;;;8.54;95.91
10712;BME280;5407;51.234;6.804;2024-03-06T04:41:10;101383.53;;;8.55;95.52
10712;BME280;5407;51.234;6.804;2024-03-06T04:43:37;101392.06;;;8.48;95.83
10712;BME280;5407;51.234;6.804;2024-03-06T04:46:04;101389.19;;;8.45;96.55
10712;BME280;5407;51.234;6.804;2024-03-06T04:48:31;101385.47;;;8.63;95.60
10712;BME280;5407;51.234;6.804;2024-03-06T04:50:58;101388.66;;;8.65;96.19
10712;BME280;5407;51.234;6.804;2024-03-06T04:53:24;101390.09;;;8.70;94.87
10712;BME280;5407;51.234;6.804;2024-03-06T04:55:53;101394.69;;;8.78;95.30
10712;BME280;5407;51.234;6.804;2024-03-06T04:58:20;101399.75;;;8.80;94.71
10712;BME280;5407;51.234;6.804;2024-03-06T05:00:46;101403.53;;;8.70;94.15
10712;BME280;5407;51.234;6.804;2024-03-06T05:03:13;101410.88;;;8.57;95.34
10712;BME280;5407;51.234;6.804;2024-03-06T05:05:40;101399.66;;;8.55;96.11
10712;BME280;5407;51.234;6.804;2024-03-06T05:08:07;101403.44;;;8.54;96.79
10712;BME280;5407;51.234;6.804;2024-03-06T05:10:35;101406.81;;;8.59;96.38
10712;BME280;5407;51.234;6.804;2024-03-06T05:13:04;101416.03;;;8.67;95.99
10712;BME280;5407;51.234;6.804;2024-03-06T05:15:30;101413.19;;;8.71;96.22
10712;BME280;5407;51.234;6.804;2024-03-06T05:17:58;101421.88;;;8.68;95.99
10712;BME280;5407;51.234;6.804;2024-03-06T05:20:26;101422.22;;;8.75;95.69
10712;BME280;5407;51.234;6.804;2024-03-06T05:22:53;101436.91;;;8.69;96.08
10712;BME280;5407;51.234;6.804;2024-03-06T05:25:20;101435.81;;;8.70;96.46
10712;BME280;5407;51.234;6.804;2024-03-06T05:27:47;101435.19;;;8.73;96.93
10712;BME280;5407;51.234;6.804;2024-03-06T05:30:15;101436.91;;;8.69;96.93
10712;BME280;5407;51.234;6.804;2024-03-06T05:32:42;101438.03;;;8.68;97.03
10712;BME280;5407;51.234;6.804;2024-03-06T05:35:09;101439.00;;;8.72;96.09
10712;BME280;5407;51.234;6.804;2024-03-06T05:37:37;101436.44;;;8.68;96.96
10712;BME280;5407;51.234;6.804;2024-03-06T05:40:04;101441.81;;;8.68;96.87
10712;BME280;5407;51.234;6.804;2024-03-06T05:42:31;101447.53;;;8.74;96.36
10712;BME280;5407;51.234;6.804;2024-03-06T05:44:58;101445.53;;;8.88;96.00
10712;BME280;5407;51.234;6.804;2024-03-06T05:47:31;101450.75;;;8.93;95.95
10712;BME280;5407;51.234;6.804;2024-03-06T05:49:59;101456.16;;;8.93;95.43
10712;BME280;5407;51.234;6.804;2024-03-06T05:52:26;101458.81;;;8.85;95.74
10712;BME280;5407;51.234;6.804;2024-03-06T05:54:52;101457.41;;;8.87;95.32
10712;BME280;5407;51.234;6.804;2024-03-06T05:57:19;101468.16;;;8.87;95.90
10712;BME280;5407;51.234;6.804;2024-03-06T05:59:46;101462.44;;;8.80;95.60
10712;BME280;5407;51.234;6.804;2024-03-06T06:02:12;101471.00;;;8.82;96.29
10712;BME280;5407;51.234;6.804;2024-03-06T06:04:43;101479.47;;;8.68;96.89
10712;BME280;5407;51.234;6.804;2024-03-06T06:07:10;101478.19;;;8.65;96.77
10712;BME280;5407;51.234;6.804;2024-03-06T06:09:36;101469.69;;;8.71;97.08
10712;BME280;5407;51.234;6.804;2024-03-06T06:12:04;101475.69;;;8.68;97.24
10712;BME280;5407;51.234;6.804;2024-03-06T06:14:31;101489.00;;;8.73;97.46
10712;BME280;5407;51.234;6.804;2024-03-06T06:16:57;101483.69;;;8.90;97.67
10712;BME280;5407;51.234;6.804;2024-03-06T06:19:24;101489.06;;;8.90;97.11
10712;BME280;5407;51.234;6.804;2024-03-06T06:21:54;101491.63;;;8.95;97.56
10712;BME280;5407;51.234;6.804;2024-03-06T06:24:21;101496.03;;;8.91;98.08
10712;BME280;5407;51.234;6.804;2024-03-06T06:26:48;101506.44;;;8.84;98.30
10712;BME280;5407;51.234;6.804;2024-03-06T06:29:15;101505.22;;;8.90;98.65
10712;BME280;5407;51.234;6.804;2024-03-06T06:31:42;101513.13;;;8.95;99.11
10712;BME280;5407;51.234;6.804;2024-03-06T06:34:09;101517.06;;;8.89;99.40
10712;BME280;5407;51.234;6.804;2024-03-06T06:36:37;101518.19;;;8.88;100.00
10712;BME280;5407;51.234;6.804;2024-03-06T06:39:07;101523.56;;;8.88;100.00
10712;BME280;5407;51.234;6.804;2024-03-06T06:41:36;101521.88;;;9.01;99.73
10712;BME280;5407;51.234;6.804;2024-03-06T06:44:03;101526.13;;;8.93;99.73
10712;BME280;5407;51.234;6.804;2024-03-06T06:46:30;101527.69;;;8.94;100.00
10712;BME280;5407;51.234;6.804;2024-03-06T06:48:57;101530.25;;;8.99;100.00
10712;BME280;5407;51.234;6.804;2024-03-06T06:51:24;101529.97;;;9.01;99.37
10712;BME280;5407;51.234;6.804;2024-03-06T06:53:51;101530.88;;;8.96;100.00
10712;BME280;5407;51.234;6.804;2024-03-06T06:56:19;101541.41;;;9.15;100.00
10712;BME280;5407;51.234;6.804;2024-03-06T06:58:49;101548.09;;;9.17;100.00
10712;BME280;5407;51.234;6.804;2024-03-06T07:01:16;101540.66;;;9.23;99.73
10712;BME280;5407;51.234;6.804;2024-03-06T07:03:43;101541.78;;;9.30;100.00
10712;BME280;5407;51.234;6.804;2024-03-06T07:06:10;101554.16;;;9.31;99.24
10712;BME280;5407;51.234;6.804;2024-03-06T07:08:37;101551.66;;;9.43;99.04
10712;BME280;5407;51.234;6.804;2024-03-06T07:11:04;101553.22;;;9.44;99.10
10712;BME280;5407;51.234;6.804;2024-03-06T07:13:32;101553.22;;;9.44;98.89
10712;BME280;5407;51.234;6.804;2024-03-06T07:15:59;101554.00;;;9.36;98.71
10712;BME280;5407;51.234;6.804;2024-03-06T07:18:26;101560.00;;;9.33;98.93
10712;BME280;5407;51.234;6.804;2024-03-06T07:20:53;101564.50;;;9.46;98.67
10712;BME280;5407;51.234;6.804;2024-03-06T07:23:20;101566.22;;;9.42;98.71
10712;BME280;5407;51.234;6.804;2024-03-06T07:25:46;101566.84;;;9.39;98.83
10712;BME280;5407;51.234;6.804;2024-03-06T07:28:13;101571.78;;;9.46;99.29
10712;BME280;5407;51.234;6.804;2024-03-06T07:30:42;101583.34;;;9.46;99.99
10712;BME280;5407;51.234;6.804;2024-03-06T07:33:09;101579.28;;;9.57;99.67
10712;BME280;5407;51.234;6.804;2024-03-06T07:35:36;101576.59;;;9.57;99.54
10712;BME280;5407;51.234;6.804;2024-03-06T07:38:03;101577.41;;;9.66;99.07
10712;BME280;5407;51.234;6.804;2024-03-06T07:40:30;101577.06;;;9.59;99.18
10712;BME280;5407;51.234;6.804;2024-03-06T07:42:57;101595.16;;;9.67;99.25
10712;BME280;5407;51.234;6.804;2024-03-06T07:45:25;101594.34;;;9.67;98.70
10712;BME280;5407;51.234;6.804;2024-03-06T07:47:54;101593.41;;;9.71;98.97
10712;BME280;5407;51.234;6.804;2024-03-06T07:50:21;101591.16;;;9.65;99.33
10712;BME280;5407;51.234;6.804;2024-03-06T07:52:55;101596.09;;;9.71;99.18
10712;BME280;5407;51.234;6.804;2024-03-06T07:55:33;101599.91;;;9.70;98.83
10712;BME280;5407;51.234;6.804;2024-03-06T07:58:01;101608.47;;;9.72;98.40
10712;BME280;5407;51.234;6.804;2024-03-06T08:00:41;101613.91;;;9.89;98.65
10712;BME280;5407;51.234;6.804;2024-03-06T08:03:10;101619.63;;;9.96;97.55
10712;BME280;5407;51.234;6.804;2024-03-06T08:05:39;101619.81;;;10.00;97.55
10712;BME280;5407;51.234;6.804;2024-03-06T08:08:09;101624.53;;;9.86;97.15
10712;BME280;5407;51.234;6.804;2024-03-06T08:10:39;101624.69;;;9.89;97.42
10712;BME280;5407;51.234;6.804;2024-03-06T08:13:07;101626.84;;;9.70;97.25
10712;BME280;5407;51.234;6.804;2024-03-06T08:15:37;101635.56;;;9.67;98.51
10712;BME280;5407;51.234;6.804;2024-03-06T08:18:06;101633.69;;;9.76;99.03
10712;BME280;5407;51.234;6.804;2024-03-06T08:20:35;101646.88;;;9.86;98.31
10712;BME280;5407;51.234;6.804;2024-03-06T08:23:03;101641.97;;;9.80;98.77
10712;BME280;5407;51.234;6.804;2024-03-06T08:25:30;101642.97;;;10.01;97.32
10712;BME280;5407;51.234;6.804;2024-03-06T08:27:59;101651.00;;;9.84;97.75
10712;BME280;5407;51.234;6.804;2024-03-06T08:30:25;101649.50;;;10.08;96.89
10712;BME280;5407;51.234;6.804;2024-03-06T08:32:57;101653.75;;;10.01;97.28
10712;BME280;5407;51.234;6.804;2024-03-06T08:35:37;101651.97;;;9.96;96.50
10712;BME280;5407;51.234;6.804;2024-03-06T08:38:05;101656.31;;;10.06;96.27
10712;BME280;5407;51.234;6.804;2024-03-06T08:40:40;101658.41;;;10.17;95.49
10712;BME280;5407;51.234;6.804;2024-03-06T08:43:11;101659.19;;;10.17;94.26
10712;BME280;5407;51.234;6.804;2024-03-06T08:45:38;101662.22;;;10.24;92.80
10712;BME280;5407;51.234;6.804;2024-03-06T08:48:06;101661.31;;;9.90;94.98
10712;BME280;5407;51.234;6.804;2024-03-06T08:50:33;101662.41;;;9.89;94.77
10712;BME280;5407;51.234;6.804;2024-03-06T08:53:06;101667.94;;;10.23;94.32
10712;BME280;5407;51.234;6.804;2024-03-06T08:55:38;101665.19;;;10.14;93.23
10712;BME280;5407;51.234;6.804;2024-03-06T08:58:07;101670.31;;;10.33;92.58
10712;BME280;5407;51.234;6.804;2024-03-06T09:00:39;101672.56;;;10.39;92.73
10712;BME280;5407;51.234;6.804;2024-03-06T09:03:06;101682.72;;;10.59;91.95
10712;BME280;5407;51.234;6.804;2024-03-06T09:05:33;101686.69;;;10.62;91.93
10712;BME280;5407;51.234;6.804;2024-03-06T09:08:07;101677.66;;;10.58;91.42
10712;BME280;5407;51.234;6.804;2024-03-06T09:10:35;101682.69;;;11.10;88.72
10712;BME280;5407;51.234;6.804;2024-03-06T09:13:02;101676.66;;;11.22;87.63
10712;BME280;5407;51.234;6.804;2024-03-06T09:15:37;101682.16;;;11.34;86.82
10712;BME280;5407;51.234;6.804;2024-03-06T09:18:07;101687.25;;;11.44;86.02
10712;BME280;5407;51.234;6.804;2024-03-06T09:20:34;101691.50;;;11.53;85.32
10712;BME280;5407;51.234;6.804;2024-03-06T09:23:01;101698.31;;;11.67;84.32
10712;BME280;5407;51.234;6.804;2024-03-06T09:25:29;101695.66;;;11.51;84.10
10712;BME280;5407;51.234;6.804;2024-03-06T09:27:56;101701.38;;;11.58;83.43
10712;BME280;5407;51.234;6.804;2024-03-06T09:30:25;101703.63;;;11.56;83.39
10712;BME280;5407;51.234;6.804;2024-03-06T09:32:53;101708.22;;;11.47;84.53
10712;BME280;5407;51.234;6.804;2024-03-06T09:35:20;101707.81;;;11.82;83.77
10712;BME280;5407;51.234;6.804;2024-03-06T09:37:47;101709.94;;;11.68;83.31
10712;BME280;5407;51.234;6.804;2024-03-06T09:40:20;101713.59;;;11.63;84.21
10712;BME280;5407;51.234;6.804;2024-03-06T09:42:49;101714.53;;;11.67;84.38
10712;BME280;5407;51.234;6.804;2024-03-06T09:45:17;101719.91;;;11.84;83.77
10712;BME280;5407;51.234;6.804;2024-03-06T09:47:47;101718.06;;;11.97;83.24
10712;BME280;5407;51.234;6.804;2024-03-06T09:50:22;101719.25;;;12.16;81.46
10712;BME280;5407;51.234;6.804;2024-03-06T09:53:06;101718.88;;;12.55;80.37
10712;BME280;5407;51.234;6.804;2024-03-06T09:55:34;101732.09;;;12.98;77.88
10712;BME280;5407;51.234;6.804;2024-03-06T09:58:04;101731.03;;;12.90;76.42
10712;BME280;5407;51.234;6.804;2024-03-06T10:00:31;101733.16;;;13.05;76.09
10712;BME280;5407;51.234;6.804;2024-03-06T10:02:59;101735.88;;;13.70;73.68
10712;BME280;5407;51.234;6.804;2024-03-06T10:09:18;101740.91;;;14.40;69.61
10712;BME280;5407;51.234;6.804;2024-03-06T10:12:32;101743.03;;;15.25;65.54
10712;BME280;5407;51.234;6.804;2024-03-06T10:22:53;101747.78;;;14.37;69.16
10712;BME280;5407;51.234;6.804;2024-03-06T10:25:26;101744.91;;;14.81;68.39
10712;BME280;5407;51.234;6.804;2024-03-06T10:28:04;101751.88;;;15.61;65.25
10712;BME280;5407;51.234;6.804;2024-03-06T10:30:33;101759.22;;;16.88;61.99
10712;BME280;5407;51.234;6.804;2024-03-06T10:33:02;101763.59;;;18.91;53.63
10712;BME280;5407;51.234;6.804;2024-03-06T10:35:29;101762.94;;;20.03;49.80
10712;BME280;5407;51.234;6.804;2024-03-06T10:38:00;101769.69;;;20.66;48.19
10712;BME280;5407;51.234;6.804;2024-03-06T10:40:30;101761.06;;;19.34;49.08
10712;BME280;5407;51.234;6.804;2024-03-06T10:42:58;101764.56;;;18.01;54.05
10712;BME280;5407;51.234;6.804;2024-03-06T10:45:40;101759.94;;;18.50;52.96
10712;BME280;5407;51.234;6.804;2024-03-06T10:48:08;101763.69;;;19.60;50.79
10712;BME280;5407;51.234;6.804;2024-03-06T10:50:38;101775.66;;;20.78;46.95
10712;BME280;5407;51.234;6.804;2024-03-06T10:53:09;101777.63;;;20.81;46.25
10712;BME280;5407;51.234;6.804;2024-03-06T10:55:37;101773.75;;;20.29;47.75
10712;BME280;5407;51.234;6.804;2024-03-06T10:58:05;101764.03;;;19.95;47.74
10712;BME280;5407;51.234;6.804;2024-03-06T11:00:36;101787.06;;;22.63;42.84
10712;BME280;5407;51.234;6.804;2024-03-06T11:03:05;101785.91;;;22.47;42.28
10712;BME280;5407;51.234;6.804;2024-03-06T11:05:35;101782.00;;;22.37;42.26
10712;BME280;5407;51.234;6.804;2024-03-06T11:08:03;101786.00;;;24.11;39.29
10712;BME280;5407;51.234;6.804;2024-03-06T11:10:33;101788.16;;;23.86;38.54
10712;BME280;5407;51.234;6.804;2024-03-06T11:13:01;101792.84;;;24.84;37.15
10712;BME280;5407;51.234;6.804;2024-03-06T11:15:28;101789.09;;;24.64;36.81
10712;BME280;5407;51.234;6.804;2024-03-06T11:17:55;101790.19;;;25.67;34.88
10712;BME280;5407;51.234;6.804;2024-03-06T11:20:22;101792.06;;;25.47;34.53
10712;BME280;5407;51.234;6.804;2024-03-06T11:23:04;101790.41;;;24.02;37.00
10712;BME280;5407;51.234;6.804;2024-03-06T11:26:00;101788.66;;;22.61;40.10
10712;BME280;5407;51.234;6.804;2024-03-06T11:28:29;101785.88;;;22.78;39.94
10712;BME280;5407;51.234;6.804;2024-03-06T11:30:57;101795.44;;;24.98;35.75
10712;BME280;5407;51.234;6.804;2024-03-06T11:33:28;101788.28;;;23.62;37.51
10712;BME280;5407;51.234;6.804;2024-03-06T11:36:18;101783.91;;;22.79;39.22
10712;BME280;5407;51.234;6.804;2024-03-06T11:38:53;101790.19;;;22.76;38.95
10712;BME280;5407;51.234;6.804;2024-03-06T11:41:22;101788.66;;;22.61;38.88
10712;BME280;5407;51.234;6.804;2024-03-06T11:43:50;101791.81;;;22.52;39.63
10712;BME280;5407;51.234;6.804;2024-03-06T11:46:19;101788.19;;;23.83;37.23
10712;BME280;5407;51.234;6.804;2024-03-06T11:48:52;101794.97;;;25.03;34.83
10712;BME280;5407;51.234;6.804;2024-03-06T11:51:20;101795.53;;;24.47;35.78
10712;BME280;5407;51.234;6.804;2024-03-06T11:53:49;101791.72;;;25.71;33.06
10712;BME280;5407;51.234;6.804;2024-03-06T11:56:17;101798.25;;;26.80;31.72
10712;BME280;5407;51.234;6.804;2024-03-06T11:58:47;101797.63;;;28.17;28.93
10712;BME280;5407;51.234;6.804;2024-03-06T12:01:14;101796.91;;;26.88;31.05
10712;BME280;5407;51.234;6.804;2024-03-06T12:03:42;101795.19;;;28.03;29.58
10712;BME280;5407;51.234;6.804;2024-03-06T12:06:09;101798.00;;;29.08;28.31
10712;BME280;5407;51.234;6.804;2024-03-06T12:08:36;101792.44;;;29.74;27.12
10712;BME280;5407;51.234;6.804;2024-03-06T12:11:05;101800.09;;;30.19;26.03
10712;BME280;5407;51.234;6.804;2024-03-06T12:13:33;101792.25;;;28.26;27.25
10712;BME280;5407;51.234;6.804;2024-03-06T12:16:07;101799.88;;;29.64;25.67
10712;BME280;5407;51.234;6.804;2024-03-06T12:18:34;101797.53;;;28.52;27.03
10712;BME280;5407;51.234;6.804;2024-03-06T12:21:02;101792.78;;;29.51;26.20
10712;BME280;5407;51.234;6.804;2024-03-06T12:23:29;101792.78;;;29.51;26.02
10712;BME280;5407;51.234;6.804;2024-03-06T12:26:06;101787.06;;;26.18;29.63
10712;BME280;5407;51.234;6.804;2024-03-06T12:28:34;101779.72;;;25.85;29.43
10712;BME280;5407;51.234;6.804;2024-03-06T12:31:02;101783.03;;;25.99;30.02
10712;BME280;5407;51.234;6.804;2024-03-06T12:33:31;101781.34;;;26.28;29.97
10712;BME280;5407;51.234;6.804;2024-03-06T12:36:03;101785.47;;;25.08;31.23
10712;BME280;5407;51.234;6.804;2024-03-06T12:38:31;101779.44;;;24.83;32.04
10712;BME280;5407;51.234;6.804;2024-03-06T12:40:58;101777.38;;;24.53;32.66
10712;BME280;5407;51.234;6.804;2024-03-06T12:43:25;101770.41;;;23.19;34.62
10712;BME280;5407;51.234;6.804;2024-03-06T12:45:54;101766.94;;;21.44;37.68
10712;BME280;5407;51.234;6.804;2024-03-06T12:48:23;101763.09;;;20.81;38.46
10712;BME280;5407;51.234;6.804;2024-03-06T12:50:51;101761.00;;;19.63;40.42
10712;BME280;5407;51.234;6.804;2024-03-06T12:53:21;101765.53;;;20.29;39.20
10712;BME280;5407;51.234;6.804;2024-03-06T12:55:48;101767.03;;;21.72;35.71
10712;BME280;5407;51.234;6.804;2024-03-06T12:58:15;101776.19;;;23.46;32.82
10712;BME280;5407;51.234;6.804;2024-03-06T13:00:42;101763.91;;;23.61;33.12
10712;BME280;5407;51.234;6.804;2024-03-06T13:03:09;101766.22;;;23.66;32.58
10712;BME280;5407;51.234;6.804;2024-03-06T13:05:36;101768.78;;;23.97;31.62
10712;BME280;5407;51.234;6.804;2024-03-06T13:08:05;101768.78;;;23.29;32.04
10712;BME280;5407;51.234;6.804;2024-03-06T13:10:32;101767.72;;;23.02;33.01
10712;BME280;5407;51.234;6.804;2024-03-06T13:12:59;101756.06;;;21.86;34.44
10712;BME280;5407;51.234;6.804;2024-03-06T13:15:26;101756.00;;;20.69;36.34
10712;BME280;5407;51.234;6.804;2024-03-06T13:17:52;101749.28;;;19.01;39.01
10712;BME280;5407;51.234;6.804;2024-03-06T13:20:19;101754.03;;;20.67;36.63
10712;BME280;5407;51.234;6.804;2024-03-06T13:22:46;101751.22;;;20.56;36.15
10712;BME280;5407;51.234;6.804;2024-03-06T13:25:13;101749.00;;;20.75;36.37